sensor_id;sensor_type;location;lat;lon;timestamp;temperature;humidity
75824;DHT22;64457;51.976;9.834;2023-10-31T00:00:38;17.30;99.90
75824;DHT22;64457;51.976;9.834;2023-10-31T00:03:06;17.30;99.90
75824;DHT22;64457;51.976;9.834;2023-10-31T00:05:37;17.20;99.90
75824;DHT22;64457;51.976;9.834;2023-10-31T00:08:05;17.10;99.90
75824;DHT22;64457;51.976;9.834;2023-10-31T00:10:32;17.10;99.90
75824;DHT22;64457;51.976;9.834;2023-10-31T00:13:00;16.90;99.90
75824;DHT22;64457;51.976;9.834;2023-10-31T00:15:27;16.90;99.90
75824;DHT22;64457;51.976;9.834;2023-10-31T00:17:56;16.80;99.90
75824;DHT22;64457;51.976;9.834;2023-10-31T00:20:24;16.80;99.90
75824;DHT22;64457;51.976;9.834;2023-10-31T00:22:53;16.40;99.90
75824;DHT22;64457;51.976;9.834;2023-10-31T00:25:21;16.60;99.90
75824;DHT22;64457;51.976;9.834;2023-10-31T00:27:48;16.30;99.90
75824;DHT22;64457;51.976;9.834;2023-10-31T00:30:17;16.30;99.90
75824;DHT22;64457;51.976;9.834;2023-10-31T00:32:45;16.50;99.90
75824;DHT22;64457;51.976;9.834;2023-10-31T00:35:13;16.50;99.90
75824;DHT22;64457;51.976;9.834;2023-10-31T00:37:41;16.70;99.90
75824;DHT22;64457;51.976;9.834;2023-10-31T00:40:11;16.60;99.90
75824;DHT22;64457;51.976;9.834;2023-10-31T00:42:39;16.70;99.90
75824;DHT22;64457;51.976;9.834;2023-10-31T00:45:08;16.60;99.90
75824;DHT22;64457;51.976;9.834;2023-10-31T00:47:36;16.60;99.90
75824;DHT22;64457;51.976;9.834;2023-10-31T00:50:05;16.60;99.90
75824;DHT22;64457;51.976;9.834;2023-10-31T00:52:34;16.50;99.90
75824;DHT22;64457;51.976;9.834;2023-10-31T00:55:02;16.30;99.90
75824;DHT22;64457;51.976;9.834;2023-10-31T00:57:32;16.40;99.90
75824;DHT22;64457;51.976;9.834;2023-10-31T01:00:01;16.60;99.90
75824;DHT22;64457;51.976;9.834;2023-10-31T01:02:30;16.60;99.90
75824;DHT22;64457;51.976;9.834;2023-10-31T01:04:57;16.70;99.90
75824;DHT22;64457;51.976;9.834;2023-10-31T01:07:25;16.80;99.90
75824;DHT22;64457;51.976;9.834;2023-10-31T01:09:53;17.00;99.90
75824;DHT22;64457;51.976;9.834;2023-10-31T01:12:21;16.70;99.90
75824;DHT22;64457;51.976;9.834;2023-10-31T01:14:51;16.60;99.90
75824;DHT22;64457;51.976;9.834;2023-10-31T01:17:19;16.80;99.90
75824;DHT22;64457;51.976;9.834;2023-10-31T01:19:46;16.80;99.90
75824;DHT22;64457;51.976;9.834;2023-10-31T01:22:14;16.80;99.90
75824;DHT22;64457;51.976;9.834;2023-10-31T01:24:44;16.90;99.90
75824;DHT22;64457;51.976;9.834;2023-10-31T01:27:11;16.70;99.90
75824;DHT22;64457;51.976;9.834;2023-10-31T01:29:39;16.80;99.90
75824;DHT22;64457;51.976;9.834;2023-10-31T01:32:10;17.00;99.90
75824;DHT22;64457;51.976;9.834;2023-10-31T01:34:39;17.00;99.90
75824;DHT22;64457;51.976;9.834;2023-10-31T01:37:07;16.80;99.90
75824;DHT22;64457;51.976;9.834;2023-10-31T01:39:36;16.80;99.90
75824;DHT22;64457;51.976;9.834;2023-10-31T01:42:05;17.00;99.90
75824;DHT22;64457;51.976;9.834;2023-10-31T01:44:32;17.00;99.90
75824;DHT22;64457;51.976;9.834;2023-10-31T01:47:00;17.00;99.90
75824;DHT22;64457;51.976;9.834;2023-10-31T01:49:32;17.00;99.90
75824;DHT22;64457;51.976;9.834;2023-10-31T01:52:01;17.10;99.90
75824;DHT22;64457;51.976;9.834;2023-10-31T01:54:31;17.10;99.90
75824;DHT22;64457;51.976;9.834;2023-10-31T01:57:00;17.00;99.90
75824;DHT22;64457;51.976;9.834;2023-10-31T01:59:28;17.10;99.90
75824;DHT22;64457;51.976;9.834;2023-10-31T02:01:57;17.20;99.90
75824;DHT22;64457;51.976;9.834;2023-10-31T02:04:27;17.20;99.90
75824;DHT22;64457;51.976;9.834;2023-10-31T02:06:57;17.30;99.90
75824;DHT22;64457;51.976;9.834;2023-10-31T02:09:24;16.80;99.90
75824;DHT22;64457;51.976;9.834;2023-10-31T02:11:55;16.40;99.90
75824;DHT22;64457;51.976;9.834;2023-10-31T02:14:23;16.40;99.90
75824;DHT22;64457;51.976;9.834;2023-10-31T02:16:51;16.60;99.90
75824;DHT22;64457;51.976;9.834;2023-10-31T02:19:20;16.80;99.90
75824;DHT22;64457;51.976;9.834;2023-10-31T02:21:49;16.80;99.90
75824;DHT22;64457;51.976;9.834;2023-10-31T02:24:17;16.70;99.90
75824;DHT22;64457;51.976;9.834;2023-10-31T02:26:44;16.80;99.90
75824;DHT22;64457;51.976;9.834;2023-10-31T02:29:12;16.80;99.90
75824;DHT22;64457;51.976;9.834;2023-10-31T02:31:41;16.80;99.90
75824;DHT22;64457;51.976;9.834;2023-10-31T02:34:09;16.90;99.90
75824;DHT22;64457;51.976;9.834;2023-10-31T02:36:37;17.00;99.90
75824;DHT22;64457;51.976;9.834;2023-10-31T02:39:06;17.10;99.90
75824;DHT22;64457;51.976;9.834;2023-10-31T02:41:34;17.10;99.90
75824;DHT22;64457;51.976;9.834;2023-10-31T02:44:02;16.90;99.90
75824;DHT22;64457;51.976;9.834;2023-10-31T02:46:30;17.00;99.90
75824;DHT22;64457;51.976;9.834;2023-10-31T02:48:58;17.10;99.90
75824;DHT22;64457;51.976;9.834;2023-10-31T02:51:25;17.20;99.90
75824;DHT22;64457;51.976;9.834;2023-10-31T02:53:54;17.30;99.90
75824;DHT22;64457;51.976;9.834;2023-10-31T02:56:23;17.30;99.90
75824;DHT22;64457;51.976;9.834;2023-10-31T02:58:51;17.30;99.90
75824;DHT22;64457;51.976;9.834;2023-10-31T03:01:18;17.30;99.90
75824;DHT22;64457;51.976;9.834;2023-10-31T03:03:46;17.40;99.90
75824;DHT22;64457;51.976;9.834;2023-10-31T03:06:14;17.10;99.90
75824;DHT22;64457;51.976;9.834;2023-10-31T03:08:41;16.60;99.90
75824;DHT22;64457;51.976;9.834;2023-10-31T03:11:09;16.30;99.90
75824;DHT22;64457;51.976;9.834;2023-10-31T03:13:38;16.00;99.90
75824;DHT22;64457;51.976;9.834;2023-10-31T03:16:06;15.80;99.90
75824;DHT22;64457;51.976;9.834;2023-10-31T03:18:34;15.80;99.90
75824;DHT22;64457;51.976;9.834;2023-10-31T03:21:02;15.70;99.90
75824;DHT22;64457;51.976;9.834;2023-10-31T03:23:32;15.20;99.90
75824;DHT22;64457;51.976;9.834;2023-10-31T03:26:00;14.80;99.90
75824;DHT22;64457;51.976;9.834;2023-10-31T03:28:28;14.70;99.90
75824;DHT22;64457;51.976;9.834;2023-10-31T03:30:57;15.10;99.90
75824;DHT22;64457;51.976;9.834;2023-10-31T03:33:24;14.80;99.90
75824;DHT22;64457;51.976;9.834;2023-10-31T03:35:52;15.10;99.90
75824;DHT22;64457;51.976;9.834;2023-10-31T03:38:19;15.10;99.90
75824;DHT22;64457;51.976;9.834;2023-10-31T03:40:46;15.00;99.90
75824;DHT22;64457;51.976;9.834;2023-10-31T03:43:15;14.90;99.90
75824;DHT22;64457;51.976;9.834;2023-10-31T03:45:42;15.10;99.90
75824;DHT22;64457;51.976;9.834;2023-10-31T03:48:12;15.10;99.90
75824;DHT22;64457;51.976;9.834;2023-10-31T03:50:40;15.20;99.90
75824;DHT22;64457;51.976;9.834;2023-10-31T03:53:07;15.40;99.70
75824;DHT22;64457;51.976;9.834;2023-10-31T03:55:35;15.60;99.90
75824;DHT22;64457;51.976;9.834;2023-10-31T03:58:03;15.40;99.90
75824;DHT22;64457;51.976;9.834;2023-10-31T04:00:31;15.70;99.90
75824;DHT22;64457;51.976;9.834;2023-10-31T04:02:59;15.40;99.70
75824;DHT22;64457;51.976;9.834;2023-10-31T04:05:29;15.60;99.90
75824;DHT22;64457;51.976;9.834;2023-10-31T04:07:56;15.90;99.60
75824;DHT22;64457;51.976;9.834;2023-10-31T04:10:25;15.60;99.70
75824;DHT22;64457;51.976;9.834;2023-10-31T04:12:53;15.60;99.40
75824;DHT22;64457;51.976;9.834;2023-10-31T04:15:21;15.60;99.90
75824;DHT22;64457;51.976;9.834;2023-10-31T04:17:48;15.70;99.90
75824;DHT22;64457;51.976;9.834;2023-10-31T04:20:16;15.40;98.70
75824;DHT22;64457;51.976;9.834;2023-10-31T04:22:46;14.90;99.90
75824;DHT22;64457;51.976;9.834;2023-10-31T04:25:15;14.60;99.90
75824;DHT22;64457;51.976;9.834;2023-10-31T04:27:42;14.30;99.90
75824;DHT22;64457;51.976;9.834;2023-10-31T04:30:11;14.40;99.90
75824;DHT22;64457;51.976;9.834;2023-10-31T04:32:41;14.50;99.70
75824;DHT22;64457;51.976;9.834;2023-10-31T04:35:09;14.60;99.90
75824;DHT22;64457;51.976;9.834;2023-10-31T04:37:37;14.90;99.90
75824;DHT22;64457;51.976;9.834;2023-10-31T04:40:09;14.80;98.50
75824;DHT22;64457;51.976;9.834;2023-10-31T04:42:39;14.60;99.50
75824;DHT22;64457;51.976;9.834;2023-10-31T04:45:09;14.60;99.40
75824;DHT22;64457;51.976;9.834;2023-10-31T04:47:36;14.60;99.70
75824;DHT22;64457;51.976;9.834;2023-10-31T04:50:04;14.60;99.20
75824;DHT22;64457;51.976;9.834;2023-10-31T04:52:32;14.80;99.20
75824;DHT22;64457;51.976;9.834;2023-10-31T04:55:00;14.80;99.30
75824;DHT22;64457;51.976;9.834;2023-10-31T04:57:30;14.90;99.20
75824;DHT22;64457;51.976;9.834;2023-10-31T04:59:58;14.60;99.40
75824;DHT22;64457;51.976;9.834;2023-10-31T05:02:26;14.60;98.60
75824;DHT22;64457;51.976;9.834;2023-10-31T05:04:54;14.20;99.70
75824;DHT22;64457;51.976;9.834;2023-10-31T05:07:24;14.30;99.40
75824;DHT22;64457;51.976;9.834;2023-10-31T05:09:52;14.30;99.10
75824;DHT22;64457;51.976;9.834;2023-10-31T05:12:19;13.90;99.70
75824;DHT22;64457;51.976;9.834;2023-10-31T05:14:48;13.50;99.90
75824;DHT22;64457;51.976;9.834;2023-10-31T05:17:16;13.30;99.90
75824;DHT22;64457;51.976;9.834;2023-10-31T05:19:43;13.80;99.90
75824;DHT22;64457;51.976;9.834;2023-10-31T05:22:11;14.10;99.40
75824;DHT22;64457;51.976;9.834;2023-10-31T05:24:39;14.00;99.70
75824;DHT22;64457;51.976;9.834;2023-10-31T05:27:08;14.00;99.50
75824;DHT22;64457;51.976;9.834;2023-10-31T05:29:38;14.20;99.70
75824;DHT22;64457;51.976;9.834;2023-10-31T05:32:08;13.70;99.70
75824;DHT22;64457;51.976;9.834;2023-10-31T05:34:35;13.70;99.90
75824;DHT22;64457;51.976;9.834;2023-10-31T05:37:03;13.80;99.90
75824;DHT22;64457;51.976;9.834;2023-10-31T05:39:32;13.70;99.20
75824;DHT22;64457;51.976;9.834;2023-10-31T05:42:02;13.70;99.90
75824;DHT22;64457;51.976;9.834;2023-10-31T05:44:30;13.80;99.80
75824;DHT22;64457;51.976;9.834;2023-10-31T05:46:57;13.90;99.90
75824;DHT22;64457;51.976;9.834;2023-10-31T05:49:26;13.60;99.80
75824;DHT22;64457;51.976;9.834;2023-10-31T05:51:54;13.70;99.90
75824;DHT22;64457;51.976;9.834;2023-10-31T05:54:22;13.50;99.90
75824;DHT22;64457;51.976;9.834;2023-10-31T05:56:50;13.00;99.90
75824;DHT22;64457;51.976;9.834;2023-10-31T05:59:17;13.10;99.90
75824;DHT22;64457;51.976;9.834;2023-10-31T06:01:45;13.40;99.90
75824;DHT22;64457;51.976;9.834;2023-10-31T06:04:12;13.50;99.90
75824;DHT22;64457;51.976;9.834;2023-10-31T06:06:41;13.60;99.90
75824;DHT22;64457;51.976;9.834;2023-10-31T06:09:09;13.70;99.90
75824;DHT22;64457;51.976;9.834;2023-10-31T06:11:40;13.70;99.90
75824;DHT22;64457;51.976;9.834;2023-10-31T06:14:09;14.00;99.80
75824;DHT22;64457;51.976;9.834;2023-10-31T06:16:40;14.30;99.70
75824;DHT22;64457;51.976;9.834;2023-10-31T06:19:09;14.40;99.00
75824;DHT22;64457;51.976;9.834;2023-10-31T06:21:37;14.60;99.00
75824;DHT22;64457;51.976;9.834;2023-10-31T06:24:08;14.60;99.10
75824;DHT22;64457;51.976;9.834;2023-10-31T06:26:36;13.80;99.90
75824;DHT22;64457;51.976;9.834;2023-10-31T06:29:05;13.90;99.90
75824;DHT22;64457;51.976;9.834;2023-10-31T06:31:33;14.00;99.40
75824;DHT22;64457;51.976;9.834;2023-10-31T06:34:01;14.20;99.90
75824;DHT22;64457;51.976;9.834;2023-10-31T06:36:29;14.20;99.40
75824;DHT22;64457;51.976;9.834;2023-10-31T06:38:57;13.70;99.90
75824;DHT22;64457;51.976;9.834;2023-10-31T06:41:26;13.80;99.90
75824;DHT22;64457;51.976;9.834;2023-10-31T06:43:54;14.20;99.90
75824;DHT22;64457;51.976;9.834;2023-10-31T06:46:21;14.40;99.40
75824;DHT22;64457;51.976;9.834;2023-10-31T06:48:51;14.40;99.50
75824;DHT22;64457;51.976;9.834;2023-10-31T06:51:19;14.30;99.60
75824;DHT22;64457;51.976;9.834;2023-10-31T06:53:48;14.30;99.60
75824;DHT22;64457;51.976;9.834;2023-10-31T06:56:17;14.60;99.40
75824;DHT22;64457;51.976;9.834;2023-10-31T06:58:46;14.70;99.00
75824;DHT22;64457;51.976;9.834;2023-10-31T07:01:15;14.80;99.00
75824;DHT22;64457;51.976;9.834;2023-10-31T07:03:45;14.60;99.10
75824;DHT22;64457;51.976;9.834;2023-10-31T07:06:14;14.80;98.90
75824;DHT22;64457;51.976;9.834;2023-10-31T07:08:41;14.70;98.90
75824;DHT22;64457;51.976;9.834;2023-10-31T07:11:09;14.80;99.10
75824;DHT22;64457;51.976;9.834;2023-10-31T07:13:37;14.60;99.00
75824;DHT22;64457;51.976;9.834;2023-10-31T07:16:07;14.30;99.80
75824;DHT22;64457;51.976;9.834;2023-10-31T07:18:35;14.20;99.90
75824;DHT22;64457;51.976;9.834;2023-10-31T07:21:04;14.60;99.70
75824;DHT22;64457;51.976;9.834;2023-10-31T07:23:32;15.00;99.20
75824;DHT22;64457;51.976;9.834;2023-10-31T07:26:00;15.10;98.90
75824;DHT22;64457;51.976;9.834;2023-10-31T07:28:30;15.00;99.10
75824;DHT22;64457;51.976;9.834;2023-10-31T07:31:00;14.90;99.10
75824;DHT22;64457;51.976;9.834;2023-10-31T07:33:29;14.90;99.40
75824;DHT22;64457;51.976;9.834;2023-10-31T07:35:57;14.70;99.60
75824;DHT22;64457;51.976;9.834;2023-10-31T07:38:25;14.50;99.90
75824;DHT22;64457;51.976;9.834;2023-10-31T07:40:53;14.80;99.90
75824;DHT22;64457;51.976;9.834;2023-10-31T07:43:20;15.10;99.40
75824;DHT22;64457;51.976;9.834;2023-10-31T07:45:49;15.00;99.10
75824;DHT22;64457;51.976;9.834;2023-10-31T07:48:17;14.80;99.60
75824;DHT22;64457;51.976;9.834;2023-10-31T07:50:48;15.10;99.20
75824;DHT22;64457;51.976;9.834;2023-10-31T07:53:17;15.00;98.90
75824;DHT22;64457;51.976;9.834;2023-10-31T07:55:45;15.20;99.00
75824;DHT22;64457;51.976;9.834;2023-10-31T07:58:12;15.50;98.70
75824;DHT22;64457;51.976;9.834;2023-10-31T08:00:40;15.60;98.10
75824;DHT22;64457;51.976;9.834;2023-10-31T08:03:08;15.50;98.40
75824;DHT22;64457;51.976;9.834;2023-10-31T08:05:36;15.70;98.60
75824;DHT22;64457;51.976;9.834;2023-10-31T08:08:06;15.70;98.20
75824;DHT22;64457;51.976;9.834;2023-10-31T08:10:33;15.60;98.20
75824;DHT22;64457;51.976;9.834;2023-10-31T08:13:01;15.60;98.00
75824;DHT22;64457;51.976;9.834;2023-10-31T08:15:30;15.40;98.50
75824;DHT22;64457;51.976;9.834;2023-10-31T08:17:58;15.20;98.80
75824;DHT22;64457;51.976;9.834;2023-10-31T08:20:28;15.00;98.90
75824;DHT22;64457;51.976;9.834;2023-10-31T08:22:59;15.10;99.00
75824;DHT22;64457;51.976;9.834;2023-10-31T08:25:29;14.90;99.10
75824;DHT22;64457;51.976;9.834;2023-10-31T08:27:56;14.80;99.70
75824;DHT22;64457;51.976;9.834;2023-10-31T08:30:24;14.80;99.50
75824;DHT22;64457;51.976;9.834;2023-10-31T08:32:53;14.80;99.60
75824;DHT22;64457;51.976;9.834;2023-10-31T08:35:22;14.80;98.90
75824;DHT22;64457;51.976;9.834;2023-10-31T08:37:50;15.00;99.50
75824;DHT22;64457;51.976;9.834;2023-10-31T08:40:21;14.90;99.20
75824;DHT22;64457;51.976;9.834;2023-10-31T08:42:51;14.70;99.70
75824;DHT22;64457;51.976;9.834;2023-10-31T08:45:25;14.30;99.90
75824;DHT22;64457;51.976;9.834;2023-10-31T08:47:54;14.20;99.90
75824;DHT22;64457;51.976;9.834;2023-10-31T08:50:22;14.50;99.90
75824;DHT22;64457;51.976;9.834;2023-10-31T08:52:51;14.40;99.90
75824;DHT22;64457;51.976;9.834;2023-10-31T08:55:22;14.50;99.90
75824;DHT22;64457;51.976;9.834;2023-10-31T08:57:51;14.60;99.90
75824;DHT22;64457;51.976;9.834;2023-10-31T09:00:19;14.80;99.90
75824;DHT22;64457;51.976;9.834;2023-10-31T09:02:47;14.80;99.90
75824;DHT22;64457;51.976;9.834;2023-10-31T09:05:15;14.90;99.90
75824;DHT22;64457;51.976;9.834;2023-10-31T09:07:43;14.50;99.90
75824;DHT22;64457;51.976;9.834;2023-10-31T09:10:12;14.00;99.90
75824;DHT22;64457;51.976;9.834;2023-10-31T09:12:40;14.10;99.90
75824;DHT22;64457;51.976;9.834;2023-10-31T09:15:10;14.20;99.90
75824;DHT22;64457;51.976;9.834;2023-10-31T09:17:39;14.30;99.90
75824;DHT22;64457;51.976;9.834;2023-10-31T09:20:07;14.40;99.90
75824;DHT22;64457;51.976;9.834;2023-10-31T09:22:37;14.90;99.90
75824;DHT22;64457;51.976;9.834;2023-10-31T09:25:05;15.40;99.90
75824;DHT22;64457;51.976;9.834;2023-10-31T09:27:33;15.70;99.90
75824;DHT22;64457;51.976;9.834;2023-10-31T09:30:01;16.20;99.00
75824;DHT22;64457;51.976;9.834;2023-10-31T09:32:31;16.50;98.60
75824;DHT22;64457;51.976;9.834;2023-10-31T09:34:59;16.40;97.40
75824;DHT22;64457;51.976;9.834;2023-10-31T09:37:27;16.50;97.40
75824;DHT22;64457;51.976;9.834;2023-10-31T09:39:55;16.50;97.20
75824;DHT22;64457;51.976;9.834;2023-10-31T09:42:23;16.60;97.70
75824;DHT22;64457;51.976;9.834;2023-10-31T09:44:51;16.00;97.60
75824;DHT22;64457;51.976;9.834;2023-10-31T09:47:20;16.10;98.10
75824;DHT22;64457;51.976;9.834;2023-10-31T09:49:49;16.20;97.50
75824;DHT22;64457;51.976;9.834;2023-10-31T09:52:19;16.20;96.90
75824;DHT22;64457;51.976;9.834;2023-10-31T09:54:47;16.00;97.10
75824;DHT22;64457;51.976;9.834;2023-10-31T09:57:16;15.80;97.00
75824;DHT22;64457;51.976;9.834;2023-10-31T09:59:45;15.50;97.00
75824;DHT22;64457;51.976;9.834;2023-10-31T10:02:13;15.60;97.70
75824;DHT22;64457;51.976;9.834;2023-10-31T10:04:41;15.70;97.10
75824;DHT22;64457;51.976;9.834;2023-10-31T10:07:13;15.70;96.90
75824;DHT22;64457;51.976;9.834;2023-10-31T10:09:45;16.00;97.50
75824;DHT22;64457;51.976;9.834;2023-10-31T10:12:16;16.20;96.50
75824;DHT22;64457;51.976;9.834;2023-10-31T10:14:45;16.30;95.80
75824;DHT22;64457;51.976;9.834;2023-10-31T10:17:16;16.30;96.00
75824;DHT22;64457;51.976;9.834;2023-10-31T10:19:44;16.30;95.50
75824;DHT22;64457;51.976;9.834;2023-10-31T10:22:14;16.40;96.00
75824;DHT22;64457;51.976;9.834;2023-10-31T10:24:42;16.30;95.40
75824;DHT22;64457;51.976;9.834;2023-10-31T10:27:11;15.80;95.80
75824;DHT22;64457;51.976;9.834;2023-10-31T10:29:44;15.80;96.70
75824;DHT22;64457;51.976;9.834;2023-10-31T10:32:15;15.90;96.40
75824;DHT22;64457;51.976;9.834;2023-10-31T10:34:45;15.90;96.50
75824;DHT22;64457;51.976;9.834;2023-10-31T10:37:16;16.10;96.20
75824;DHT22;64457;51.976;9.834;2023-10-31T10:39:47;16.00;96.00
75824;DHT22;64457;51.976;9.834;2023-10-31T10:42:19;15.50;96.50
75824;DHT22;64457;51.976;9.834;2023-10-31T10:44:50;15.30;96.90
75824;DHT22;64457;51.976;9.834;2023-10-31T10:47:21;15.30;96.80
75824;DHT22;64457;51.976;9.834;2023-10-31T10:49:54;15.40;96.80
75824;DHT22;64457;51.976;9.834;2023-10-31T10:52:28;15.30;96.80
75824;DHT22;64457;51.976;9.834;2023-10-31T10:55:08;15.40;96.90
75824;DHT22;64457;51.976;9.834;2023-10-31T10:57:45;15.50;97.10
75824;DHT22;64457;51.976;9.834;2023-10-31T11:00:17;15.20;96.50
75824;DHT22;64457;51.976;9.834;2023-10-31T11:02:51;15.00;97.70
75824;DHT22;64457;51.976;9.834;2023-10-31T11:05:23;15.20;97.60
75824;DHT22;64457;51.976;9.834;2023-10-31T11:07:57;15.40;97.30
75824;DHT22;64457;51.976;9.834;2023-10-31T11:10:37;15.40;97.20
75824;DHT22;64457;51.976;9.834;2023-10-31T11:13:07;15.20;97.70
75824;DHT22;64457;51.976;9.834;2023-10-31T11:15:38;15.20;97.30
75824;DHT22;64457;51.976;9.834;2023-10-31T11:18:06;15.50;97.50
75824;DHT22;64457;51.976;9.834;2023-10-31T11:20:38;15.70;97.20
75824;DHT22;64457;51.976;9.834;2023-10-31T11:23:09;15.70;96.90
75824;DHT22;64457;51.976;9.834;2023-10-31T11:25:42;16.00;96.90
75824;DHT22;64457;51.976;9.834;2023-10-31T11:28:12;16.20;96.60
75824;DHT22;64457;51.976;9.834;2023-10-31T11:30:41;16.20;96.10
75824;DHT22;64457;51.976;9.834;2023-10-31T11:33:12;15.50;97.00
75824;DHT22;64457;51.976;9.834;2023-10-31T11:35:40;15.50;97.20
75824;DHT22;64457;51.976;9.834;2023-10-31T11:38:13;15.40;97.80
75824;DHT22;64457;51.976;9.834;2023-10-31T11:40:59;15.80;97.30
75824;DHT22;64457;51.976;9.834;2023-10-31T11:43:53;15.70;97.10
75824;DHT22;64457;51.976;9.834;2023-10-31T11:46:22;15.70;97.30
75824;DHT22;64457;51.976;9.834;2023-10-31T11:48:54;15.90;96.90
75824;DHT22;64457;51.976;9.834;2023-10-31T11:51:25;16.00;96.60
75824;DHT22;64457;51.976;9.834;2023-10-31T11:53:56;16.10;97.10
75824;DHT22;64457;51.976;9.834;2023-10-31T11:56:24;16.40;96.00
75824;DHT22;64457;51.976;9.834;2023-10-31T11:58:56;16.10;96.30
75824;DHT22;64457;51.976;9.834;2023-10-31T12:01:29;15.50;97.30
75824;DHT22;64457;51.976;9.834;2023-10-31T12:03:57;15.00;98.30
75824;DHT22;64457;51.976;9.834;2023-10-31T12:06:25;14.80;98.90
75824;DHT22;64457;51.976;9.834;2023-10-31T12:08:53;14.80;99.00
75824;DHT22;64457;51.976;9.834;2023-10-31T12:11:28;14.80;99.20
75824;DHT22;64457;51.976;9.834;2023-10-31T12:13:59;15.00;99.10
75824;DHT22;64457;51.976;9.834;2023-10-31T12:16:33;15.10;98.70
75824;DHT22;64457;51.976;9.834;2023-10-31T12:19:03;15.10;98.90
75824;DHT22;64457;51.976;9.834;2023-10-31T12:21:35;15.20;99.10
75824;DHT22;64457;51.976;9.834;2023-10-31T12:24:09;15.50;98.70
75824;DHT22;64457;51.976;9.834;2023-10-31T12:26:37;15.60;98.40
75824;DHT22;64457;51.976;9.834;2023-10-31T12:29:10;15.20;98.80
75824;DHT22;64457;51.976;9.834;2023-10-31T12:31:42;15.20;99.00
75824;DHT22;64457;51.976;9.834;2023-10-31T12:34:13;15.40;98.90
75824;DHT22;64457;51.976;9.834;2023-10-31T12:36:41;15.30;98.50
75824;DHT22;64457;51.976;9.834;2023-10-31T12:39:11;15.40;98.50
75824;DHT22;64457;51.976;9.834;2023-10-31T12:41:40;15.70;98.40
75824;DHT22;64457;51.976;9.834;2023-10-31T12:44:08;15.30;98.60
75824;DHT22;64457;51.976;9.834;2023-10-31T12:46:39;15.30;98.90
75824;DHT22;64457;51.976;9.834;2023-10-31T12:49:12;15.40;99.20
75824;DHT22;64457;51.976;9.834;2023-10-31T12:51:58;14.80;99.70
75824;DHT22;64457;51.976;9.834;2023-10-31T12:54:32;15.00;99.80
75824;DHT22;64457;51.976;9.834;2023-10-31T12:57:01;15.10;99.60
75824;DHT22;64457;51.976;9.834;2023-10-31T12:59:30;15.20;99.30
75824;DHT22;64457;51.976;9.834;2023-10-31T13:01:58;15.40;99.10
75824;DHT22;64457;51.976;9.834;2023-10-31T13:04:26;15.70;99.10
75824;DHT22;64457;51.976;9.834;2023-10-31T13:06:57;16.00;98.40
75824;DHT22;64457;51.976;9.834;2023-10-31T13:09:28;16.00;97.70
75824;DHT22;64457;51.976;9.834;2023-10-31T13:12:00;16.20;98.00
75824;DHT22;64457;51.976;9.834;2023-10-31T13:14:29;15.30;98.50
75824;DHT22;64457;51.976;9.834;2023-10-31T13:16:57;15.30;99.10
75824;DHT22;64457;51.976;9.834;2023-10-31T13:19:25;15.20;99.30
75824;DHT22;64457;51.976;9.834;2023-10-31T13:21:52;15.30;99.10
75824;DHT22;64457;51.976;9.834;2023-10-31T13:24:20;15.40;98.80
75824;DHT22;64457;51.976;9.834;2023-10-31T13:26:50;15.60;98.50
75824;DHT22;64457;51.976;9.834;2023-10-31T13:29:19;15.70;98.80
75824;DHT22;64457;51.976;9.834;2023-10-31T13:31:47;15.80;98.60
75824;DHT22;64457;51.976;9.834;2023-10-31T13:34:15;16.00;98.20
75824;DHT22;64457;51.976;9.834;2023-10-31T13:36:42;16.10;98.20
75824;DHT22;64457;51.976;9.834;2023-10-31T13:39:10;15.90;98.60
75824;DHT22;64457;51.976;9.834;2023-10-31T13:41:38;16.10;98.10
75824;DHT22;64457;51.976;9.834;2023-10-31T13:44:08;16.50;97.90
75824;DHT22;64457;51.976;9.834;2023-10-31T13:46:35;16.70;97.80
75824;DHT22;64457;51.976;9.834;2023-10-31T13:49:03;16.60;97.70
75824;DHT22;64457;51.976;9.834;2023-10-31T13:51:33;16.90;97.30
75824;DHT22;64457;51.976;9.834;2023-10-31T13:54:02;17.00;96.60
75824;DHT22;64457;51.976;9.834;2023-10-31T13:56:31;17.00;96.90
75824;DHT22;64457;51.976;9.834;2023-10-31T13:58:59;16.80;96.80
75824;DHT22;64457;51.976;9.834;2023-10-31T14:01:28;16.30;97.10
75824;DHT22;64457;51.976;9.834;2023-10-31T14:03:56;16.30;96.90
75824;DHT22;64457;51.976;9.834;2023-10-31T14:06:23;16.00;97.40
75824;DHT22;64457;51.976;9.834;2023-10-31T14:08:58;15.70;98.20
75824;DHT22;64457;51.976;9.834;2023-10-31T14:11:27;16.10;97.90
75824;DHT22;64457;51.976;9.834;2023-10-31T14:13:55;16.40;97.50
75824;DHT22;64457;51.976;9.834;2023-10-31T14:16:25;16.40;97.30
75824;DHT22;64457;51.976;9.834;2023-10-31T14:18:55;16.30;97.10
75824;DHT22;64457;51.976;9.834;2023-10-31T14:21:24;16.20;97.20
75824;DHT22;64457;51.976;9.834;2023-10-31T14:23:52;15.70;97.60
75824;DHT22;64457;51.976;9.834;2023-10-31T14:26:21;15.60;98.00
75824;DHT22;64457;51.976;9.834;2023-10-31T14:28:49;15.70;97.80
75824;DHT22;64457;51.976;9.834;2023-10-31T14:31:17;16.00;97.40
75824;DHT22;64457;51.976;9.834;2023-10-31T14:33:47;16.00;97.40
75824;DHT22;64457;51.976;9.834;2023-10-31T14:36:16;16.00;97.40
75824;DHT22;64457;51.976;9.834;2023-10-31T14:38:43;16.00;97.30
75824;DHT22;64457;51.976;9.834;2023-10-31T14:41:14;15.80;97.40
75824;DHT22;64457;51.976;9.834;2023-10-31T14:43:42;15.80;97.30
75824;DHT22;64457;51.976;9.834;2023-10-31T14:46:09;15.70;97.80
75824;DHT22;64457;51.976;9.834;2023-10-31T14:48:38;15.80;97.60
75824;DHT22;64457;51.976;9.834;2023-10-31T14:51:08;15.50;97.60
75824;DHT22;64457;51.976;9.834;2023-10-31T14:53:35;15.50;98.00
75824;DHT22;64457;51.976;9.834;2023-10-31T14:56:04;15.20;98.00
75824;DHT22;64457;51.976;9.834;2023-10-31T14:58:32;15.50;98.10
75824;DHT22;64457;51.976;9.834;2023-10-31T15:01:00;15.60;97.90
75824;DHT22;64457;51.976;9.834;2023-10-31T15:03:27;15.90;97.50
75824;DHT22;64457;51.976;9.834;2023-10-31T15:05:55;16.00;97.30
75824;DHT22;64457;51.976;9.834;2023-10-31T15:08:25;15.70;97.40
75824;DHT22;64457;51.976;9.834;2023-10-31T15:10:53;15.40;97.90
75824;DHT22;64457;51.976;9.834;2023-10-31T15:13:22;15.40;98.20
75824;DHT22;64457;51.976;9.834;2023-10-31T15:15:50;15.30;98.10
75824;DHT22;64457;51.976;9.834;2023-10-31T15:18:18;15.50;98.10
75824;DHT22;64457;51.976;9.834;2023-10-31T15:20:46;15.60;97.80
75824;DHT22;64457;51.976;9.834;2023-10-31T15:23:14;15.40;97.70
75824;DHT22;64457;51.976;9.834;2023-10-31T15:25:44;15.40;98.00
75824;DHT22;64457;51.976;9.834;2023-10-31T15:28:12;15.40;97.90
75824;DHT22;64457;51.976;9.834;2023-10-31T15:30:40;15.70;97.50
75824;DHT22;64457;51.976;9.834;2023-10-31T15:33:08;15.80;97.30
75824;DHT22;64457;51.976;9.834;2023-10-31T15:35:35;15.30;97.00
75824;DHT22;64457;51.976;9.834;2023-10-31T15:38:03;15.30;98.00
75824;DHT22;64457;51.976;9.834;2023-10-31T15:40:31;15.30;97.80